Time;durP1;ratioP1;P1;durP2;ratioP2;P2;SDS_P1;SDS_P2;PMS_P1;PMS_P2;Temp;Humidity;BMP_temperature;BMP_pressure;BME280_temperature;BME280_humidity;BME280_pressure;Samples;Min_cycle;Max_cycle;Signal;HPM_P1;HPM_P2
2022/10/18 00:02:18;;;;;;;19.70;13.28;;;;;;;12.39;52.73;101215.64;1752298;81;21087;-72
2022/10/18 00:04:46;;;;;;;16.87;11.05;;;;;;;12.38;52.78;101209.94;1722652;81;21098;-72
2022/10/18 00:07:12;;;;;;;23.77;12.45;;;;;;;12.38;52.84;101210.46;1731208;82;21591;-73
2022/10/18 00:09:41;;;;;;;17.05;11.80;;;;;;;12.37;52.87;101209.66;1732103;81;21074;-70
2022/10/18 00:12:09;;;;;;;20.30;12.10;;;;;;;12.34;52.96;101207.39;1753712;81;21014;-69
2022/10/18 00:14:35;;;;;;;17.52;11.57;;;;;;;12.33;53.03;101198.99;1740268;81;21099;-70
2022/10/18 00:17:02;;;;;;;23.27;12.53;;;;;;;12.33;53.06;101195.47;1738922;81;21078;-72
2022/10/18 00:19:28;;;;;;;18.48;12.07;;;;;;;12.32;53.08;101193.84;1703875;82;21072;-72
2022/10/18 00:21:56;;;;;;;22.80;12.43;;;;;;;12.32;53.13;101193.84;1702905;84;21548;-73
2022/10/18 00:24:23;;;;;;;18.23;11.57;;;;;;;12.31;53.18;101191.66;1732499;81;21094;-73
2022/10/18 00:26:50;;;;;;;17.60;11.28;;;;;;;12.30;53.24;101192.70;1757234;81;21079;-74
2022/10/18 00:29:16;;;;;;;15.15;10.60;;;;;;;12.28;53.33;101196.70;1738502;81;21042;-71
2022/10/18 00:31:43;;;;;;;20.00;11.85;;;;;;;12.23;53.38;101190.07;1719347;82;21240;-72
2022/10/18 00:34:13;;;;;;;25.30;11.57;;;;;;;12.20;53.48;101187.83;1715232;82;21018;-70
2022/10/18 00:36:39;;;;;;;17.85;11.95;;;;;;;12.18;53.59;101188.56;1727485;82;21109;-70
2022/10/18 00:39:07;;;;;;;14.87;10.88;;;;;;;12.16;53.63;101183.11;1704673;84;20987;-71
2022/10/18 00:41:36;;;;;;;20.43;12.18;;;;;;;12.14;53.72;101176.58;1706514;82;21043;-71
2022/10/18 00:44:17;;;;;;;19.07;11.60;;;;;;;12.12;53.76;101174.65;1712470;82;21072;-70
2022/10/18 00:46:46;;;;;;;24.07;11.83;;;;;;;12.12;53.83;101169.77;1732689;81;21034;-70
2022/10/18 00:49:18;;;;;;;16.70;11.65;;;;;;;12.09;53.90;101164.81;1704596;82;20970;-72
2022/10/18 00:52:06;;;;;;;18.20;10.80;;;;;;;12.08;53.96;101172.63;1721403;83;21050;-71
2022/10/18 00:54:34;;;;;;;20.45;12.03;;;;;;;12.07;54.00;101168.27;1726637;81;21559;-70
2022/10/18 00:57:01;;;;;;;19.62;12.03;;;;;;;12.05;54.07;101167.13;1729969;81;21085;-70
2022/10/18 00:59:27;;;;;;;17.05;10.78;;;;;;;12.06;54.12;101176.88;1705070;83;21021;-70
2022/10/18 01:01:55;;;;;;;19.37;13.78;;;;;;;12.05;54.17;101163.61;1705050;83;20993;-68
2022/10/18 01:04:22;;;;;;;20.15;12.73;;;;;;;12.03;54.26;101167.90;1727698;82;21031;-72
2022/10/18 01:07:09;;;;;;;20.02;11.80;;;;;;;11.99;54.44;101157.78;1724488;81;21000;-70
2022/10/18 01:10:00;;;;;;;19.67;12.25;;;;;;;11.96;54.48;101159.56;1726442;81;21426;-72
2022/10/18 01:13:19;;;;;;;18.32;11.83;;;;;;;11.93;54.58;101154.10;1648672;84;21006;-70
2022/10/18 01:16:14;;;;;;;18.07;10.72;;;;;;;11.92;54.68;101148.92;1707410;83;21028;-71
2022/10/18 01:19:12;;;;;;;12.95;10.10;;;;;;;11.88;54.80;101148.55;1726044;83;21505;-69
2022/10/18 01:21:55;;;;;;;22.70;11.60;;;;;;;11.87;54.96;101151.45;1726092;83;21060;-69
2022/10/18 01:24:25;;;;;;;;;;;;;;;11.84;55.00;101143.31;1728306;83;21221;-70
2022/10/18 01:27:08;;;;;;;23.15;11.63;;;;;;;11.80;55.17;101146.13;1726506;83;20480;-69
2022/10/18 01:29:56;;;;;;;17.12;10.32;;;;;;;11.77;55.25;101135.80;1722040;83;21077;-71
2022/10/18 01:32:27;;;;;;;17.30;12.13;;;;;;;11.75;55.39;101141.39;1725831;83;21072;-71
2022/10/18 01:35:01;;;;;;;13.58;11.03;;;;;;;11.72;55.45;101132.42;1725780;83;21125;-72
2022/10/18 01:37:28;;;;;;;16.55;11.48;;;;;;;11.73;55.49;101131.90;1725948;83;21586;-79
2022/10/18 01:39:56;;;;;;;14.98;11.20;;;;;;;11.71;55.54;101119.13;1704979;83;21025;-76
2022/10/18 01:42:24;;;;;;;18.80;12.28;;;;;;;11.69;55.57;101123.41;1725304;81;21031;-76
2022/10/18 01:44:51;;;;;;;20.25;11.78;;;;;;;11.70;55.55;101121.55;1725615;83;21043;-79
2022/10/18 01:47:18;;;;;;;20.10;10.85;;;;;;;11.70;55.51;101120.19;1725678;83;22252;-77
2022/10/18 01:49:46;;;;;;;19.55;12.23;;;;;;;11.69;55.55;101120.71;1725818;83;20919;-73
2022/10/18 01:52:14;;;;;;;17.10;11.40;;;;;;;11.69;55.57;101119.88;1724665;83;21613;-76
2022/10/18 01:54:47;;;;;;;20.25;11.28;;;;;;;11.67;55.56;101113.36;1724954;83;21657;-78
2022/10/18 01:57:22;;;;;;;23.27;11.00;;;;;;;11.68;55.55;101112.84;1724619;83;21035;-73
2022/10/18 02:00:16;;;;;;;16.07;11.43;;;;;;;11.67;55.54;101109.31;1725990;83;21026;-73
2022/10/18 02:02:56;;;;;;;20.25;11.95;;;;;;;11.65;55.53;101111.42;1704352;83;21602;-75
2022/10/18 02:06:11;;;;;;;16.50;10.03;;;;;;;11.64;55.57;101109.77;1737036;81;21078;-76
2022/10/18 02:08:58;;;;;;;19.45;10.43;;;;;;;11.63;55.54;101099.20;1676151;85;21541;-76
2022/10/18 02:11:25;;;;;;;14.15;10.48;;;;;;;11.63;55.58;101099.20;1693320;83;21539;-78
2022/10/18 02:14:09;;;;;;;21.87;11.25;;;;;;;11.61;55.64;101090.50;1704631;82;21011;-77
2022/10/18 02:16:45;;;;;;;15.35;11.40;;;;;;;11.59;55.72;101092.09;1708755;82;21773;-76
2022/10/18 02:19:35;;;;;;;20.32;11.50;;;;;;;11.56;55.80;101089.83;1713765;82;21001;-75
2022/10/18 02:22:01;;;;;;;17.73;11.43;;;;;;;11.51;55.89;101079.44;1739197;82;21493;-77
2022/10/18 02:24:34;;;;;;;18.45;12.58;;;;;;;11.49;55.90;101085.56;1714391;82;21621;-76
2022/10/18 02:27:01;;;;;;;18.37;10.78;;;;;;;11.47;55.94;101083.59;1740895;82;21109;-78
2022/10/18 02:29:28;;;;;;;17.95;11.00;;;;;;;11.45;56.00;101081.66;1741799;82;21238;-77
2022/10/18 02:32:12;;;;;;;17.85;10.72;;;;;;;11.44;56.05;101080.01;1709744;82;21551;-76
2022/10/18 02:34:45;;;;;;;18.92;10.75;;;;;;;11.42;56.08;101076.70;1731915;82;21174;-77
2022/10/18 02:37:13;;;;;;;17.15;10.53;;;;;;;11.40;56.11;101074.25;1693926;83;20996;-78
2022/10/18 02:39:45;;;;;;;16.32;11.45;;;;;;;11.39;56.10;101076.63;1709309;83;21020;-78
2022/10/18 02:42:11;;;;;;;13.08;9.83;;;;;;;11.38;56.10;101071.77;1713411;82;21263;-76
2022/10/18 02:44:38;;;;;;;19.35;11.30;;;;;;;11.37;56.18;101074.15;1635955;84;21658;-77
2022/10/18 02:47:05;;;;;;;17.52;11.08;;;;;;;11.36;56.18;101079.26;1709125;82;21565;-76
2022/10/18 02:49:32;;;;;;;15.75;10.35;;;;;;;11.35;56.17;101084.86;1709574;83;21022;-78
2022/10/18 02:51:59;;;;;;;18.42;11.28;;;;;;;11.32;56.19;101078.02;1709392;83;21013;-78
2022/10/18 02:54:25;;;;;;;16.57;11.68;;;;;;;11.31;56.21;101071.53;1709251;83;21777;-77
2022/10/18 02:56:52;;;;;;;16.62;10.65;;;;;;;11.28;56.20;101064.70;1708745;83;20987;-77
2022/10/18 02:59:19;;;;;;;16.20;11.50;;;;;;;11.30;56.20;101071.22;1707716;84;21086;-77
2022/10/18 03:01:45;;;;;;;23.20;11.50;;;;;;;11.28;56.18;101062.00;1708364;83;21140;-75
2022/10/18 03:04:12;;;;;;;15.83;10.72;;;;;;;11.28;56.06;101048.54;1735307;82;21033;-78
2022/10/18 03:06:40;;;;;;;20.75;10.78;;;;;;;11.30;56.06;101052.38;1719230;81;21150;-77
2022/10/18 03:09:06;;;;;;;19.57;10.53;;;;;;;11.30;55.96;101049.67;1691979;83;20954;-78
2022/10/18 03:11:33;;;;;;;14.13;9.48;;;;;;;11.30;55.87;101044.29;1719699;83;21051;-77
2022/10/18 03:14:01;;;;;;;19.70;9.80;;;;;;;11.32;55.72;101044.35;1715960;83;20915;-76
2022/10/18 03:16:29;;;;;;;17.77;10.58;;;;;;;11.34;55.50;101046.84;1716126;81;21033;-75
2022/10/18 03:18:55;;;;;;;17.55;10.75;;;;;;;11.36;55.56;101036.67;1723784;81;21012;-76
2022/10/18 03:21:23;;;;;;;22.75;12.00;;;;;;;11.35;55.61;101043.10;1723191;83;20986;-76
2022/10/18 03:23:50;;;;;;;15.60;10.72;;;;;;;11.35;55.54;101043.10;1721395;82;21028;-75
2022/10/18 03:26:20;;;;;;;16.65;10.35;;;;;;;11.34;55.58;101037.41;1720307;82;20949;-76
2022/10/18 03:28:46;;;;;;;18.05;10.90;;;;;;;11.33;55.64;101041.97;1719394;83;20951;-77
2022/10/18 03:31:13;;;;;;;20.00;11.48;;;;;;;11.31;55.65;101041.91;1720688;81;21226;-76
2022/10/18 03:33:39;;;;;;;28.17;12.68;;;;;;;11.29;55.66;101038.08;1728466;81;21103;-76
2022/10/18 03:36:07;;;;;;;15.48;10.80;;;;;;;11.28;55.72;101041.80;1724046;83;20933;-76
2022/10/18 03:38:35;;;;;;;17.32;11.28;;;;;;;11.27;55.77;101042.05;1724513;82;21036;-76
2022/10/18 03:41:03;;;;;;;17.85;10.43;;;;;;;11.24;55.87;101041.13;1724224;82;21592;-77
2022/10/18 03:43:29;;;;;;;22.82;10.65;;;;;;;11.21;55.88;101037.54;1678549;83;21234;-77
2022/10/18 03:45:56;;;;;;;17.67;10.98;;;;;;;11.20;55.83;101041.27;1723368;83;21060;-75
2022/10/18 03:48:22;;;;;;;19.07;11.10;;;;;;;11.19;55.91;101036.92;1725519;82;21339;-76
2022/10/18 03:50:48;;;;;;;18.42;11.55;;;;;;;11.15;55.96;101036.55;1723443;83;21022;-75
2022/10/18 03:53:15;;;;;;;24.52;11.70;;;;;;;11.12;56.08;101031.61;1723227;83;21056;-75
2022/10/18 03:55:43;;;;;;;18.20;11.50;;;;;;;11.09;56.09;101029.34;1723474;83;21067;-75
2022/10/18 03:58:09;;;;;;;16.80;11.38;;;;;;;11.07;56.23;101024.72;1703559;82;21108;-75
2022/10/18 04:00:37;;;;;;;19.30;11.60;;;;;;;11.01;56.27;101024.24;1727229;82;21394;-77
2022/10/18 04:03:04;;;;;;;17.92;11.93;;;;;;;10.97;56.43;101021.69;1723706;82;20977;-73
2022/10/18 04:05:30;;;;;;;14.28;10.43;;;;;;;10.91;56.50;101023.39;1723444;83;21104;-73
2022/10/18 04:07:57;;;;;;;15.38;11.20;;;;;;;10.87;56.67;101018.15;1723039;83;21754;-75
2022/10/18 04:10:23;;;;;;;19.85;11.28;;;;;;;10.81;56.81;101013.63;1718034;83;21568;-75
2022/10/18 04:12:51;;;;;;;15.50;12.35;;;;;;;10.77;56.98;101011.59;1673666;84;21086;-75
2022/10/18 04:15:21;;;;;;;12.58;10.43;;;;;;;10.71;57.19;101005.22;1715485;82;20946;-75
2022/10/18 04:17:47;;;;;;;16.20;12.37;;;;;;;10.66;57.34;101004.22;1726214;81;21037;-77
2022/10/18 04:20:15;;;;;;;20.08;12.15;;;;;;;10.59;57.54;101002.94;1725693;82;21578;-77
2022/10/18 04:22:45;;;;;;;17.05;11.03;;;;;;;10.57;57.65;101008.22;1723689;83;21044;-76
2022/10/18 04:25:11;;;;;;;16.07;11.50;;;;;;;10.52;57.88;100995.94;1724409;83;21096;-75
2022/10/18 04:27:38;;;;;;;15.63;10.32;;;;;;;10.48;57.98;101003.11;1724438;83;21587;-76
2022/10/18 04:30:09;;;;;;;26.57;13.38;;;;;;;10.46;58.09;101000.31;1723605;83;21054;-74
2022/10/18 04:32:36;;;;;;;15.98;11.55;;;;;;;10.43;58.21;100994.03;1703753;83;21106;-75
2022/10/18 04:35:03;;;;;;;14.90;10.75;;;;;;;10.42;58.28;100989.69;1723682;83;21067;-75
2022/10/18 04:37:29;;;;;;;16.55;11.57;;;;;;;10.41;58.29;100989.37;1700287;83;21078;-75
2022/10/18 04:39:56;;;;;;;16.55;10.88;;;;;;;10.40;58.29;100988.59;1719771;83;21042;-75
2022/10/18 04:42:23;;;;;;;18.48;10.90;;;;;;;10.40;58.38;100978.34;1699798;83;21064;-76
2022/10/18 04:44:52;;;;;;;16.80;11.30;;;;;;;10.39;58.42;100972.66;1699124;83;22037;-76
2022/10/18 04:47:18;;;;;;;23.55;11.88;;;;;;;10.38;58.30;100976.37;1723173;82;21010;-76
2022/10/18 04:49:45;;;;;;;18.42;12.05;;;;;;;10.38;58.27;100966.45;1720838;81;21089;-74
2022/10/18 04:52:14;;;;;;;15.18;11.33;;;;;;;10.39;58.22;100964.59;1728761;82;21048;-75
2022/10/18 04:54:43;;;;;;;18.57;11.12;;;;;;;10.39;58.18;100963.23;1724708;83;21053;-76
2022/10/18 04:57:09;;;;;;;16.97;10.30;;;;;;;10.39;58.26;100955.17;1677323;83;21284;-76
2022/10/18 04:59:36;;;;;;;18.55;11.60;;;;;;;10.40;58.21;100958.17;1722453;83;21034;-76
2022/10/18 05:02:05;;;;;;;18.75;12.35;;;;;;;10.39;58.20;100960.55;1727242;83;21114;-75
2022/10/18 05:04:32;;;;;;;15.93;11.05;;;;;;;10.37;58.23;100960.77;1712827;83;21067;-77
2022/10/18 05:06:59;;;;;;;21.10;10.55;;;;;;;10.37;58.23;100953.21;1701898;82;21105;-76
2022/10/18 05:09:27;;;;;;;16.12;11.70;;;;;;;10.35;58.30;100950.76;1703872;83;21926;-76
2022/10/18 05:11:55;;;;;;;16.35;11.50;;;;;;;10.34;58.30;100955.00;1719531;83;20996;-74
2022/10/18 05:14:22;;;;;;;19.35;11.50;;;;;;;10.33;58.29;100954.17;1712734;83;21026;-75
2022/10/18 05:16:50;;;;;;;17.05;11.43;;;;;;;10.33;58.31;100958.20;1718169;83;21694;-75
2022/10/18 05:19:28;;;;;;;16.42;10.82;;;;;;;10.34;58.24;100952.31;1717274;83;21683;-76
2022/10/18 05:21:54;;;;;;;18.02;11.63;;;;;;;10.35;58.27;100956.66;1709030;81;22156;-76
2022/10/18 05:24:20;;;;;;;19.62;12.00;;;;;;;10.37;58.25;100957.24;1711758;83;21628;-74
2022/10/18 05:26:47;;;;;;;17.27;12.63;;;;;;;10.38;58.08;100963.77;1711087;83;21635;-76
2022/10/18 05:29:14;;;;;;;14.78;12.30;;;;;;;10.43;57.97;100966.63;1711566;82;21060;-76
2022/10/18 05:31:40;;;;;;;17.02;11.95;;;;;;;10.45;57.88;100970.45;1719917;83;21102;-76
2022/10/18 05:34:07;;;;;;;13.93;11.00;;;;;;;10.49;57.64;100964.41;1725276;82;21052;-74
2022/10/18 05:36:33;;;;;;;16.20;10.13;;;;;;;10.54;57.55;100968.31;1725952;81;20992;-75
2022/10/18 05:39:04;;;;;;;17.57;12.07;;;;;;;10.56;57.45;100972.41;1715501;82;21018;-76
2022/10/18 05:41:31;;;;;;;19.70;13.28;;;;;;;10.59;57.49;100982.77;1709027;82;21038;-75
2022/10/18 05:43:57;;;;;;;19.73;12.03;;;;;;;10.60;57.60;100985.73;1704664;84;21061;-76
2022/10/18 05:46:24;;;;;;;17.45;11.80;;;;;;;10.61;57.50;100982.00;1715351;83;21263;-74
2022/10/18 05:48:51;;;;;;;22.40;13.05;;;;;;;10.62;57.53;100982.31;1713667;83;21001;-74
2022/10/18 05:51:20;;;;;;;17.27;12.63;;;;;;;10.63;57.78;100983.97;1717794;83;20943;-75
2022/10/18 05:53:47;;;;;;;16.50;11.75;;;;;;;10.63;57.74;100978.59;1716129;81;20976;-76
2022/10/18 05:56:13;;;;;;;15.43;11.45;;;;;;;10.65;57.84;100979.69;1712208;83;21107;-73
2022/10/18 05:58:41;;;;;;;14.50;11.03;;;;;;;10.68;57.75;100976.59;1716384;81;21145;-73
2022/10/18 06:01:09;;;;;;;20.68;12.82;;;;;;;10.70;57.77;100976.66;1711781;83;21143;-76
2022/10/18 06:03:36;;;;;;;21.48;12.30;;;;;;;10.73;57.93;100970.85;1712313;83;21099;-79
2022/10/18 06:06:06;;;;;;;22.15;12.28;;;;;;;10.77;57.95;100977.95;1723982;81;21629;-77
2022/10/18 06:08:34;;;;;;;17.98;12.50;;;;;;;10.80;57.76;100969.44;1689451;83;21072;-78
2022/10/18 06:11:13;;;;;;;23.35;11.20;;;;;;;10.85;57.72;100970.42;1688605;83;21239;-72
2022/10/18 06:13:41;;;;;;;21.33;12.28;;;;;;;10.91;57.59;100973.59;1689681;83;21037;-75
2022/10/18 06:16:09;;;;;;;20.02;13.10;;;;;;;10.98;57.36;100972.72;1684337;83;21046;-79
2022/10/18 06:18:35;;;;;;;17.07;10.70;;;;;;;11.03;57.30;100968.30;1703996;82;21149;-84
2022/10/18 06:21:02;;;;;;;21.68;10.68;;;;;;;11.08;57.11;100967.11;1698795;83;21051;-84
2022/10/18 06:23:28;;;;;;;18.30;11.15;;;;;;;11.15;56.87;100973.27;1695237;84;21104;-78
2022/10/18 06:26:03;;;;;;;17.62;10.90;;;;;;;11.23;56.68;100971.63;1700829;83;21138;-77
2022/10/18 06:28:29;;;;;;;18.32;11.78;;;;;;;11.31;56.51;100971.35;1694555;82;21133;-73
2022/10/18 06:30:57;;;;;;;21.85;12.88;;;;;;;11.38;56.36;100968.56;1695117;84;21485;-74
2022/10/18 06:33:24;;;;;;;15.70;10.98;;;;;;;11.47;56.19;100967.22;1693626;84;21391;-74
2022/10/18 06:35:54;;;;;;;17.07;11.05;;;;;;;11.55;55.94;100964.77;1690733;84;21622;-75
2022/10/18 06:38:22;;;;;;;16.87;11.05;;;;;;;11.62;55.76;100959.59;1693462;83;21029;-77
2022/10/18 06:40:49;;;;;;;16.05;10.98;;;;;;;11.70;55.59;100966.01;1684931;84;21228;-75
2022/10/18 06:43:15;;;;;;;19.15;11.35;;;;;;;11.78;55.44;100963.06;1703338;84;21061;-76
2022/10/18 06:45:42;;;;;;;15.15;10.40;;;;;;;11.87;55.25;100962.73;1700801;83;21047;-79
2022/10/18 06:48:08;;;;;;;22.20;11.03;;;;;;;11.97;54.88;100960.33;1711237;83;21267;-76
2022/10/18 06:50:35;;;;;;;14.90;9.30;;;;;;;12.04;54.72;100954.30;1712429;83;20979;-74
2022/10/18 06:53:04;;;;;;;23.57;13.05;;;;;;;12.12;54.69;100960.23;1711004;83;21034;-77
2022/10/18 06:55:31;;;;;;;19.15;10.58;;;;;;;12.22;54.50;100955.63;1711310;83;21519;-76
2022/10/18 06:57:57;;;;;;;15.65;9.93;;;;;;;12.30;54.15;100951.77;1734091;82;21554;-76
2022/10/18 07:00:23;;;;;;;19.67;10.90;;;;;;;12.38;54.08;100948.21;1722394;82;21274;-73
2022/10/18 07:02:51;;;;;;;17.62;10.45;;;;;;;12.46;53.87;100949.25;1719115;82;21479;-76
2022/10/18 07:05:18;;;;;;;13.85;10.32;;;;;;;12.54;53.64;100951.60;1696749;82;21577;-75
2022/10/18 07:07:45;;;;;;;15.78;9.60;;;;;;;12.63;53.23;100951.56;1683534;83;22315;-74
2022/10/18 07:10:12;;;;;;;25.35;11.05;;;;;;;12.71;52.94;100954.43;1729806;81;21070;-75
2022/10/18 07:12:40;;;;;;;12.55;9.88;;;;;;;12.78;52.54;100944.36;1723871;83;21033;-74
2022/10/18 07:15:09;;;;;;;21.68;10.08;;;;;;;12.87;52.17;100948.87;1723849;83;21573;-75
2022/10/18 07:17:38;;;;;;;14.38;10.10;;;;;;;12.94;52.07;100943.67;1723933;83;20930;-79
2022/10/18 07:20:05;;;;;;;15.83;9.58;;;;;;;13.02;51.94;100942.48;1730898;81;21018;-74
2022/10/18 07:22:33;;;;;;;18.20;12.13;;;;;;;13.09;51.59;100936.45;1732485;82;20989;-76
2022/10/18 07:25:00;;;;;;;14.30;9.55;;;;;;;13.18;51.58;100937.77;1717969;81;21123;-73
2022/10/18 07:27:26;;;;;;;23.38;10.35;;;;;;;13.26;51.33;100931.99;1731292;82;21042;-75
2022/10/18 07:29:53;;;;;;;13.62;9.28;;;;;;;13.34;51.09;100938.37;1723017;81;21039;-72
2022/10/18 07:32:20;;;;;;;13.88;8.30;;;;;;;13.42;50.75;100948.84;1705701;82;21069;-75
2022/10/18 07:34:46;;;;;;;15.25;8.43;;;;;;;13.51;50.56;100942.00;1700834;84;21593;-71
2022/10/18 07:37:13;;;;;;;16.07;10.13;;;;;;;13.60;50.37;100940.27;1705201;82;21123;-72
2022/10/18 07:39:43;;;;;;;14.58;9.55;;;;;;;13.67;50.04;100922.05;1697281;83;21021;-74
2022/10/18 07:42:09;;;;;;;13.75;9.05;;;;;;;13.74;49.94;100928.12;1723255;81;21511;-74
2022/10/18 07:44:36;;;;;;;14.85;9.55;;;;;;;13.81;49.76;100927.46;1708261;82;21366;-75
2022/10/18 07:47:02;;;;;;;17.62;9.73;;;;;;;13.89;49.64;100920.30;1716723;82;21080;-74
2022/10/18 07:49:29;;;;;;;15.48;9.58;;;;;;;13.97;49.63;100914.50;1706268;83;22377;-77
2022/10/18 07:51:55;;;;;;;14.03;9.10;;;;;;;14.04;49.38;100912.48;1701469;84;21084;-75
2022/10/18 07:54:23;;;;;;;22.07;9.25;;;;;;;14.12;49.09;100917.49;1701327;84;21560;-76
2022/10/18 07:56:50;;;;;;;15.78;10.05;;;;;;;14.21;49.00;100908.44;1701503;84;21063;-73
2022/10/18 07:59:16;;;;;;;13.38;9.28;;;;;;;14.28;48.88;100907.77;1701316;84;21088;-73
2022/10/18 08:01:42;;;;;;;15.20;8.63;;;;;;;14.36;48.79;100892.50;1702037;82;21225;-72
2022/10/18 08:04:09;;;;;;;17.55;9.90;;;;;;;14.47;48.37;100901.62;1708452;83;21381;-76
2022/10/18 08:06:36;;;;;;;18.67;9.43;;;;;;;14.57;48.54;100893.66;1705352;82;20949;-75
2022/10/18 08:09:04;;;;;;;20.92;9.88;;;;;;;14.64;48.37;100893.77;1704011;84;21052;-75
2022/10/18 08:11:30;;;;;;;18.37;9.50;;;;;;;14.75;48.37;100888.80;1704720;84;21047;-76
2022/10/18 08:14:00;;;;;;;15.10;10.55;;;;;;;14.85;48.20;100889.49;1704581;83;21776;-75
2022/10/18 08:16:28;;;;;;;16.45;9.45;;;;;;;14.93;47.95;100887.70;1703960;83;21038;-77
2022/10/18 08:18:56;;;;;;;15.38;9.30;;;;;;;15.00;47.72;100887.54;1721881;82;21091;-74
2022/10/18 08:21:23;;;;;;;16.70;9.20;;;;;;;15.09;47.21;100885.51;1721882;83;21130;-74
2022/10/18 08:23:52;;;;;;;14.45;9.98;;;;;;;15.19;47.10;100877.52;1721969;83;21044;-75
2022/10/18 08:26:20;;;;;;;16.97;9.80;;;;;;;15.27;46.85;100885.20;1721911;83;21147;-76
2022/10/18 08:28:47;;;;;;;14.63;9.45;;;;;;;15.36;46.81;100875.27;1715704;81;21669;-74
2022/10/18 08:31:16;;;;;;;19.75;9.08;;;;;;;15.44;46.32;100869.42;1704197;83;21043;-75
2022/10/18 08:33:43;;;;;;;21.57;7.65;;;;;;;15.51;46.45;100866.81;1704351;84;21046;-74
2022/10/18 08:36:15;;;;;;;11.40;7.55;;;;;;;15.61;46.44;100864.22;1704098;84;21118;-74
2022/10/18 08:38:42;;;;;;;15.25;8.68;;;;;;;15.69;45.90;100862.41;1701389;84;20996;-74
2022/10/18 08:41:40;;;;;;;13.60;8.73;;;;;;;15.79;45.76;100860.87;1704299;83;20945;-71
2022/10/18 08:44:22;;;;;;;11.18;8.10;;;;;;;15.87;45.61;100857.72;1724523;83;21091;-71
2022/10/18 08:46:56;;;;;;;16.45;8.53;;;;;;;15.99;45.52;100861.08;1699664;83;21137;-73
2022/10/18 08:52:44;;;;;;;8.95;7.60;;;;;;;16.20;44.79;100853.95;1661851;82;21519;-77
2022/10/18 08:55:25;;;;;;;11.25;8.18;;;;;;;16.30;44.40;100845.90;1718989;82;20973;-77
2022/10/18 08:57:53;;;;;;;11.43;8.63;;;;;;;16.41;44.36;100841.63;1736772;82;21038;-76
2022/10/18 09:00:22;;;;;;;8.03;7.10;;;;;;;16.50;44.39;100833.27;1731391;82;21114;-76
2022/10/18 09:03:03;;;;;;;14.45;7.97;;;;;;;16.61;44.19;100833.37;1686062;82;21466;-74
2022/10/18 09:05:45;;;;;;;11.35;7.30;;;;;;;16.72;44.08;100833.73;1652437;83;21167;-73
2022/10/18 09:08:23;;;;;;;11.97;8.05;;;;;;;16.82;44.02;100823.75;1716071;83;21206;-74
2022/10/18 09:11:13;;;;;;;9.15;7.33;;;;;;;16.95;43.91;100825.98;1696434;82;20953;-74
2022/10/18 09:14:12;;;;;;;14.75;9.00;;;;;;;17.07;43.27;100823.60;1679592;85;21527;-75
2022/10/18 09:17:10;;;;;;;10.35;8.18;;;;;;;17.17;43.13;100822.29;1700814;82;21033;-73
2022/10/18 09:20:18;;;;;;;11.88;8.78;;;;;;;17.25;43.10;100808.17;1723110;82;21225;-76
2022/10/18 09:23:02;;;;;;;15.75;7.53;;;;;;;17.36;43.15;100809.85;1706397;82;21086;-73
2022/10/18 09:25:48;;;;;;;13.95;8.60;;;;;;;17.49;43.04;100798.45;1717520;82;21674;-74
2022/10/18 09:28:42;;;;;;;10.70;8.38;;;;;;;17.60;43.01;100796.05;1708919;82;21057;-76
2022/10/18 09:31:33;;;;;;;10.90;7.55;;;;;;;17.74;42.76;100799.09;1679582;84;20968;-74
2022/10/18 09:34:11;;;;;;;17.05;7.20;;;;;;;17.86;42.58;100789.56;1705728;83;21127;-73
2022/10/18 09:36:37;;;;;;;11.55;7.70;;;;;;;17.98;42.43;100785.23;1683160;82;21094;-75
2022/10/18 09:39:14;;;;;;;15.83;7.55;;;;;;;18.10;42.43;100780.31;1734436;82;21038;-75
2022/10/18 09:41:57;;;;;;;14.90;7.12;;;;;;;18.22;42.29;100773.23;1732038;82;20974;-76
2022/10/18 09:44:37;;;;;;;;;;;;;;;18.34;42.04;100773.75;1734715;82;21073;-79
2022/10/18 09:47:24;;;;;;;8.43;7.08;;;;;;;18.49;41.89;100764.74;1729293;82;22652;-75
2022/10/18 09:50:00;;;;;;;14.07;8.38;;;;;;;18.60;41.63;100753.59;1727030;83;20936;-73
2022/10/18 09:52:47;;;;;;;16.75;7.58;;;;;;;18.74;41.54;100748.36;1700009;83;21060;-75
2022/10/18 09:55:21;;;;;;;11.85;7.25;;;;;;;18.86;41.53;100743.94;1712491;82;21589;-76
2022/10/18 09:57:53;;;;;;;11.57;8.00;;;;;;;19.00;41.23;100740.88;1724229;82;21196;-74
2022/10/18 10:00:27;;;;;;;12.05;7.22;;;;;;;19.12;40.77;100737.28;1727786;81;21126;-73
2022/10/18 10:02:54;;;;;;;16.52;7.05;;;;;;;19.25;40.73;100733.11;1721164;83;21046;-75
2022/10/18 10:05:21;;;;;;;17.75;7.50;;;;;;;19.36;40.51;100731.42;1722428;83;21002;-72
2022/10/18 10:07:48;;;;;;;14.03;6.50;;;;;;;19.49;40.46;100729.98;1662386;85;21021;-73
2022/10/18 10:10:20;;;;;;;11.97;6.53;;;;;;;19.61;40.29;100725.01;1708574;82;21109;-73
2022/10/18 10:12:47;;;;;;;12.30;6.77;;;;;;;19.72;40.06;100721.08;1708144;83;21055;-75
2022/10/18 10:15:22;;;;;;;15.18;7.05;;;;;;;19.83;40.02;100708.98;1713456;82;20986;-75
2022/10/18 10:18:08;;;;;;;14.55;6.95;;;;;;;19.95;39.80;100709.41;1730411;82;20971;-76
2022/10/18 10:20:44;;;;;;;10.63;7.00;;;;;;;20.03;39.25;100708.81;1735312;82;21074;-73
2022/10/18 10:23:25;;;;;;;14.15;6.80;;;;;;;20.12;39.18;100710.91;1710161;82;21074;-75
2022/10/18 10:25:54;;;;;;;16.37;7.20;;;;;;;20.20;39.14;100697.43;1708606;83;21115;-71
2022/10/18 10:28:36;;;;;;;12.55;7.60;;;;;;;20.29;39.05;100687.49;1716533;82;21242;-75
2022/10/18 10:31:25;;;;;;;15.05;6.80;;;;;;;20.36;38.76;100688.55;1713596;82;21548;-74
2022/10/18 10:34:05;;;;;;;7.97;5.75;;;;;;;20.45;38.78;100682.71;1687829;82;20987;-70
2022/10/18 10:36:35;;;;;;;19.32;7.83;;;;;;;20.57;38.78;100679.58;1725087;82;21046;-74
2022/10/18 10:39:18;;;;;;;10.35;6.60;;;;;;;20.70;38.77;100685.70;1636403;83;21733;-76
2022/10/18 10:41:54;;;;;;;14.93;5.60;;;;;;;20.79;38.04;100666.98;1710583;82;21140;-70
2022/10/18 10:44:31;;;;;;;13.88;6.22;;;;;;;20.87;38.20;100669.59;1713259;82;21029;-72
2022/10/18 10:46:57;;;;;;;9.98;6.42;;;;;;;20.91;37.87;100665.16;1715421;82;21568;-72
2022/10/18 10:49:36;;;;;;;10.13;6.55;;;;;;;20.98;38.11;100664.26;1709255;83;21223;-75
2022/10/18 10:52:02;;;;;;;8.88;5.22;;;;;;;21.10;37.77;100657.77;1732768;82;21255;-75
2022/10/18 10:54:35;;;;;;;15.53;5.55;;;;;;;21.21;37.79;100655.19;1686443;84;22270;-76
2022/10/18 10:57:10;;;;;;;13.48;6.30;;;;;;;21.43;37.51;100649.67;1704005;82;21779;-82
2022/10/18 10:59:54;;;;;;;9.95;5.90;;;;;;;21.43;37.51;100649.67;1735670;82;21030;-82
2022/10/18 11:02:33;;;;;;;11.12;6.42;;;;;;;21.51;37.17;100640.77;1710714;82;21052;-81
2022/10/18 11:05:24;;;;;;;14.95;5.75;;;;;;;21.56;37.09;100646.97;1709238;83;21794;-83
2022/10/18 11:07:54;;;;;;;11.95;5.60;;;;;;;21.60;37.20;100638.97;1719417;82;20935;-82
2022/10/18 11:10:23;;;;;;;13.60;6.53;;;;;;;21.66;37.06;100625.45;1726658;82;21047;-82
2022/10/18 11:13:17;;;;;;;13.90;7.22;;;;;;;21.71;36.78;100639.88;1717771;83;21106;-70
2022/10/18 11:15:49;;;;;;;8.70;5.72;;;;;;;21.78;36.73;100620.84;1672691;84;21038;-73
2022/10/18 11:18:31;;;;;;;7.78;5.60;;;;;;;21.84;36.64;100626.50;1707757;83;22407;-76
2022/10/18 11:21:13;;;;;;;9.18;5.87;;;;;;;21.90;36.49;100619.81;1706565;84;21554;-74
2022/10/18 11:23:41;;;;;;;15.55;6.30;;;;;;;21.95;36.27;100612.91;1706222;84;21558;-71
2022/10/18 11:26:34;;;;;;;9.83;5.62;;;;;;;21.92;36.33;100606.64;1707826;83;21035;-74
2022/10/18 11:29:31;;;;;;;13.18;6.80;;;;;;;21.95;36.55;100597.84;1722018;83;23401;-73
2022/10/18 11:32:29;;;;;;;18.32;6.47;;;;;;;22.03;36.44;100597.13;1722532;83;21193;-69
2022/10/18 11:35:09;;;;;;;18.23;6.40;;;;;;;22.08;36.22;100589.63;1722464;83;21744;-74
2022/10/18 11:38:04;;;;;;;21.87;6.60;;;;;;;22.13;36.33;100581.30;1719826;83;21091;-76